createdAt,value
2023-04-07T00:00:39.683Z,55.05
2023-04-07T00:03:21.888Z,55.07
2023-04-07T00:05:51.037Z,55.25
2023-04-07T00:08:20.110Z,55.03
2023-04-07T00:10:49.165Z,55.15
2023-04-07T00:13:18.498Z,55.16
2023-04-07T00:15:47.482Z,55.08
2023-04-07T00:18:16.398Z,54.89
2023-04-07T00:20:45.366Z,55.12
2023-04-07T00:23:14.592Z,55.23
2023-04-07T00:25:43.632Z,55.21
2023-04-07T00:28:12.927Z,55.12
2023-04-07T00:30:41.922Z,54.97
2023-04-07T00:33:10.973Z,55.25
2023-04-07T00:35:39.913Z,55.21
2023-04-07T00:38:08.954Z,55.23
2023-04-07T00:40:37.877Z,55.13
2023-04-07T00:43:06.724Z,55.30
2023-04-07T00:45:36.409Z,55.28
2023-04-07T00:48:06.492Z,55.27
2023-04-07T00:50:35.599Z,55.37
2023-04-07T00:53:04.619Z,55.37
2023-04-07T00:55:33.724Z,55.43
2023-04-07T00:58:04.568Z,55.37
2023-04-07T01:00:37.657Z,55.50
2023-04-07T01:03:13.838Z,55.51
2023-04-07T01:05:51.218Z,55.50
2023-04-07T01:08:25.023Z,55.55
2023-04-07T01:10:57.194Z,55.50
2023-04-07T01:13:32.140Z,55.52
2023-04-07T01:16:05.259Z,55.63
2023-04-07T01:18:36.938Z,55.59
2023-04-07T01:21:11.162Z,55.66
2023-04-07T01:24:01.425Z,55.79
2023-04-07T01:26:32.903Z,55.86
2023-04-07T01:29:27.363Z,55.76
2023-04-07T01:32:00.237Z,55.94
2023-04-07T01:34:33.144Z,55.89
2023-04-07T01:37:03.981Z,55.94
2023-04-07T01:39:34.178Z,56.03
2023-04-07T01:42:06.867Z,56.01
2023-04-07T01:44:36.720Z,56.15
2023-04-07T01:47:06.099Z,56.16
2023-04-07T01:49:37.118Z,56.13
2023-04-07T01:52:07.718Z,56.28
2023-04-07T01:54:37.398Z,56.18
2023-04-07T01:57:06.334Z,56.33
2023-04-07T01:59:35.210Z,56.30
2023-04-07T02:02:04.315Z,56.44
2023-04-07T02:04:38.508Z,56.55
2023-04-07T02:07:12.381Z,56.53
2023-04-07T02:09:43.160Z,56.58
2023-04-07T02:12:15.890Z,56.62
2023-04-07T02:14:45.197Z,56.75
2023-04-07T02:17:16.428Z,56.78
2023-04-07T02:19:47.675Z,56.83
2023-04-07T02:22:17.845Z,56.85
2023-04-07T02:24:46.841Z,56.86
2023-04-07T02:27:15.767Z,57.08
2023-04-07T02:29:44.694Z,56.99
2023-04-07T02:32:13.642Z,57.23
2023-04-07T02:34:42.800Z,57.30
2023-04-07T02:37:11.836Z,57.27
2023-04-07T02:39:41.002Z,57.37
2023-04-07T02:42:10.030Z,57.36
2023-04-07T02:44:38.943Z,57.42
2023-04-07T02:47:08.190Z,57.56
2023-04-07T02:49:37.207Z,57.63
2023-04-07T02:52:06.436Z,57.60
2023-04-07T02:54:35.982Z,57.68
2023-04-07T02:57:05.261Z,57.82
2023-04-07T02:59:34.194Z,57.89
2023-04-07T03:02:03.377Z,57.90
2023-04-07T03:04:32.862Z,57.90
2023-04-07T03:07:01.732Z,58.03
2023-04-07T03:09:30.844Z,58.19
2023-04-07T03:11:59.810Z,58.11
2023-04-07T03:14:28.826Z,58.16
2023-04-07T03:16:57.976Z,58.19
2023-04-07T03:19:27.227Z,58.13
2023-04-07T03:21:56.136Z,58.26
2023-04-07T03:24:25.725Z,58.24
2023-04-07T03:26:55.573Z,58.07
2023-04-07T03:29:24.538Z,58.35
2023-04-07T03:31:53.510Z,58.34
2023-04-07T03:34:22.491Z,58.56
2023-04-07T03:36:51.499Z,58.64
2023-04-07T03:39:20.814Z,58.52
2023-04-07T03:41:49.819Z,58.60
2023-04-07T03:44:18.814Z,58.58
2023-04-07T03:46:49.946Z,58.71
2023-04-07T03:49:18.809Z,58.75
2023-04-07T03:51:47.946Z,58.79
2023-04-07T03:54:16.879Z,59.12
2023-04-07T03:56:45.899Z,59.19
2023-04-07T03:59:14.933Z,59.21
2023-04-07T04:01:43.895Z,59.15
2023-04-07T04:04:13.033Z,59.44
2023-04-07T04:06:42.205Z,59.53
2023-04-07T04:09:11.116Z,59.74
2023-04-07T04:11:40.090Z,59.88
2023-04-07T04:14:09.246Z,59.80
2023-04-07T04:16:38.188Z,59.89
2023-04-07T04:19:07.107Z,59.98
2023-04-07T04:21:36.029Z,59.90
2023-04-07T04:24:06.063Z,59.97
2023-04-07T04:26:34.991Z,60.10
2023-04-07T04:29:03.952Z,60.01
2023-04-07T04:31:33.087Z,60.08
2023-04-07T04:34:01.968Z,60.03
2023-04-07T04:36:31.054Z,60.03
2023-04-07T04:39:00.001Z,60.09
2023-04-07T04:41:28.919Z,59.97
2023-04-07T04:43:58.076Z,60.07
2023-04-07T04:46:26.990Z,59.69
2023-04-07T04:48:57.351Z,59.86
2023-04-07T04:51:26.644Z,59.91
2023-04-07T04:53:55.797Z,59.94
2023-04-07T04:56:25.141Z,59.96
2023-04-07T04:58:54.091Z,59.94
2023-04-07T05:01:23.006Z,60.06
2023-04-07T05:03:52.461Z,60.22
2023-04-07T05:06:21.568Z,60.14
2023-04-07T05:08:50.659Z,60.13
2023-04-07T05:11:21.051Z,60.19
2023-04-07T05:13:50.617Z,60.37
2023-04-07T05:16:19.895Z,60.22
2023-04-07T05:18:49.000Z,60.31
2023-04-07T05:21:19.698Z,60.19
2023-04-07T05:23:48.690Z,60.18
2023-04-07T05:26:17.774Z,60.25
2023-04-07T05:28:46.975Z,60.04
2023-04-07T05:31:15.908Z,60.17
2023-04-07T05:33:44.965Z,60.10
2023-04-07T05:36:13.986Z,60.20
2023-04-07T05:38:43.067Z,60.10
2023-04-07T05:41:12.343Z,60.41
2023-04-07T05:43:41.327Z,60.06
2023-04-07T05:46:10.345Z,60.10
2023-04-07T05:48:39.339Z,60.13
2023-04-07T05:51:08.395Z,60.30
2023-04-07T05:53:37.526Z,60.32
2023-04-07T05:56:06.947Z,60.48
2023-04-07T05:58:36.113Z,60.42
2023-04-07T06:01:05.243Z,60.49
2023-04-07T06:03:34.404Z,60.29
2023-04-07T06:06:03.752Z,60.38
2023-04-07T06:08:32.638Z,60.21
2023-04-07T06:11:01.636Z,60.29
2023-04-07T06:13:30.528Z,60.20
2023-04-07T06:15:59.592Z,60.24
2023-04-07T06:18:28.461Z,60.09
2023-04-07T06:20:57.429Z,60.13
2023-04-07T06:23:26.632Z,60.22
2023-04-07T06:25:55.944Z,60.15
2023-04-07T06:28:24.893Z,59.91
2023-04-07T06:30:54.008Z,60.00
2023-04-07T06:33:25.198Z,59.94
2023-04-07T06:35:54.285Z,59.59
2023-04-07T06:38:23.403Z,59.87
2023-04-07T06:40:52.816Z,59.34
2023-04-07T06:43:21.778Z,59.72
2023-04-07T06:45:50.813Z,59.38
2023-04-07T06:48:19.874Z,58.88
2023-04-07T06:50:50.416Z,58.85
2023-04-07T06:53:19.943Z,58.55
2023-04-07T06:55:48.932Z,59.00
2023-04-07T06:58:18.361Z,58.75
2023-04-07T07:00:47.432Z,58.67
2023-04-07T07:03:16.690Z,58.43
2023-04-07T07:05:45.765Z,58.34
2023-04-07T07:08:14.901Z,58.31
2023-04-07T07:10:44.103Z,57.97
2023-04-07T07:13:12.994Z,58.14
2023-04-07T07:15:42.623Z,58.11
2023-04-07T07:18:11.716Z,57.47
2023-04-07T07:20:40.832Z,57.31
2023-04-07T07:23:09.800Z,57.16
2023-04-07T07:25:38.839Z,56.79
2023-04-07T07:28:08.761Z,56.51
2023-04-07T07:30:41.105Z,56.48
2023-04-07T07:33:10.283Z,55.97
2023-04-07T07:35:39.856Z,54.95
2023-04-07T07:38:08.849Z,55.92
2023-04-07T07:40:37.777Z,55.98
2023-04-07T07:43:06.791Z,55.33
2023-04-07T07:45:35.916Z,55.82
2023-04-07T07:48:04.987Z,54.98
2023-04-07T07:50:33.806Z,54.65
2023-04-07T07:53:02.847Z,54.61
2023-04-07T07:55:31.757Z,53.89
2023-04-07T07:58:00.875Z,54.04
2023-04-07T08:00:30.308Z,54.21
2023-04-07T08:02:59.691Z,54.31
2023-04-07T08:05:28.731Z,54.21
2023-04-07T08:07:57.800Z,53.80
2023-04-07T08:10:26.709Z,52.99
2023-04-07T08:12:55.789Z,53.69
2023-04-07T08:15:25.070Z,53.67
2023-04-07T08:17:55.542Z,53.15
2023-04-07T08:20:25.433Z,52.69
2023-04-07T08:22:54.405Z,52.01
2023-04-07T08:25:23.453Z,51.39
2023-04-07T08:27:52.519Z,51.79
2023-04-07T08:30:21.987Z,52.33
2023-04-07T08:32:50.969Z,51.74
2023-04-07T08:35:20.397Z,51.75
2023-04-07T08:37:49.903Z,51.32
2023-04-07T08:40:18.823Z,51.56
2023-04-07T08:42:49.222Z,50.70
2023-04-07T08:45:19.501Z,50.80
2023-04-07T08:47:56.156Z,50.34
2023-04-07T08:50:27.213Z,50.80
2023-04-07T08:52:58.475Z,51.09
2023-04-07T08:55:27.721Z,50.60
2023-04-07T08:57:58.665Z,50.81
2023-04-07T09:00:29.888Z,50.86
2023-04-07T09:03:02.900Z,49.56
2023-04-07T09:05:32.603Z,50.10
2023-04-07T09:08:02.487Z,48.93
2023-04-07T09:10:31.525Z,49.76
2023-04-07T09:13:00.565Z,50.04
2023-04-07T09:15:32.528Z,49.93
2023-04-07T09:18:01.516Z,49.49
2023-04-07T09:20:57.476Z,49.12
2023-04-07T09:23:30.838Z,49.18
2023-04-07T09:26:01.258Z,48.99
2023-04-07T09:28:43.802Z,47.66
2023-04-07T09:31:12.820Z,48.81
2023-04-07T09:33:41.823Z,49.17
2023-04-07T09:36:11.856Z,48.96
2023-04-07T09:38:42.105Z,48.35
2023-04-07T09:41:13.125Z,48.51
2023-04-07T09:43:44.094Z,48.51
2023-04-07T09:46:15.316Z,48.19
2023-04-07T09:48:45.311Z,48.20
2023-04-07T09:51:16.144Z,48.13
2023-04-07T09:53:47.845Z,48.05
2023-04-07T09:56:18.330Z,47.89
2023-04-07T09:58:50.985Z,47.66
2023-04-07T10:01:21.052Z,47.29
2023-04-07T10:03:50.855Z,47.77
2023-04-07T10:06:21.303Z,47.74
2023-04-07T10:08:50.520Z,47.62
2023-04-07T10:11:20.325Z,47.76
2023-04-07T10:13:49.932Z,47.65
2023-04-07T10:16:19.885Z,47.49
2023-04-07T10:18:51.291Z,47.44
2023-04-07T10:21:20.499Z,46.57
2023-04-07T10:23:56.925Z,46.46
2023-04-07T10:26:30.678Z,46.95
2023-04-07T10:29:06.050Z,47.25
2023-04-07T10:31:35.630Z,47.58
2023-04-07T10:34:05.323Z,47.56
2023-04-07T10:36:34.849Z,47.42
2023-04-07T10:39:23.615Z,47.33
2023-04-07T10:41:52.749Z,47.31
2023-04-07T10:44:47.695Z,47.50
2023-04-07T10:47:17.057Z,47.08
2023-04-07T10:50:19.980Z,47.17
2023-04-07T10:52:51.952Z,47.05
2023-04-07T10:55:32.897Z,47.10
2023-04-07T10:58:22.049Z,46.90
2023-04-07T11:01:29.008Z,46.81
2023-04-07T11:04:01.809Z,47.22
2023-04-07T11:06:31.322Z,47.43
2023-04-07T11:09:00.208Z,47.35
2023-04-07T11:11:41.903Z,47.39
2023-04-07T11:14:11.124Z,47.31
2023-04-07T11:16:45.138Z,47.24
2023-04-07T11:19:14.039Z,46.97
2023-04-07T11:21:42.885Z,46.74
2023-04-07T11:24:31.427Z,46.62
2023-04-07T11:27:00.940Z,46.02
2023-04-07T11:29:30.663Z,46.58
2023-04-07T11:32:01.774Z,46.59
2023-04-07T11:34:32.047Z,46.65
2023-04-07T11:37:20.417Z,46.85
2023-04-07T11:39:55.009Z,47.15
2023-04-07T11:42:34.270Z,46.90
2023-04-07T11:45:04.653Z,46.69
2023-04-07T11:47:38.558Z,46.59
2023-04-07T11:50:09.328Z,46.55
2023-04-07T11:52:45.308Z,46.37
2023-04-07T11:55:21.987Z,46.07
2023-04-07T11:57:51.798Z,46.50
2023-04-07T12:00:21.751Z,46.51
2023-04-07T12:02:50.832Z,46.57
2023-04-07T12:05:20.479Z,46.51
2023-04-07T12:07:55.929Z,46.19
2023-04-07T12:10:26.390Z,46.40
2023-04-07T12:12:56.986Z,46.47
2023-04-07T12:15:28.054Z,46.37
2023-04-07T12:17:57.140Z,46.32
2023-04-07T12:20:27.026Z,46.21
2023-04-07T12:22:56.057Z,46.46
2023-04-07T12:25:25.232Z,46.28
2023-04-07T12:27:54.200Z,46.19
2023-04-07T12:30:23.313Z,45.71
2023-04-07T12:32:53.064Z,46.03
2023-04-07T12:35:22.323Z,46.10
2023-04-07T12:37:52.523Z,46.24
2023-04-07T12:40:21.742Z,46.03
2023-04-07T12:42:50.787Z,46.15
2023-04-07T12:45:19.920Z,46.22
2023-04-07T12:47:48.924Z,46.28
2023-04-07T12:50:18.109Z,46.31
2023-04-07T12:52:47.911Z,46.37
2023-04-07T12:55:16.957Z,46.18
2023-04-07T12:57:46.827Z,46.48
2023-04-07T13:00:16.281Z,46.42
2023-04-07T13:02:45.379Z,46.36
2023-04-07T13:05:14.509Z,46.42
2023-04-07T13:07:43.350Z,46.43
2023-04-07T13:10:12.252Z,46.38
2023-04-07T13:12:41.846Z,46.49
2023-04-07T13:15:11.058Z,46.54
2023-04-07T13:17:40.126Z,46.53
2023-04-07T13:20:11.049Z,46.53
2023-04-07T13:22:49.324Z,46.30
2023-04-07T13:25:24.668Z,46.41
2023-04-07T13:27:53.673Z,46.58
2023-04-07T13:30:23.016Z,46.65
2023-04-07T13:32:52.757Z,46.54
2023-04-07T13:35:21.976Z,46.45
2023-04-07T13:37:50.990Z,46.58
2023-04-07T13:40:20.316Z,46.61
2023-04-07T13:42:49.184Z,46.17
2023-04-07T13:45:18.267Z,46.26
2023-04-07T13:47:47.210Z,46.59
2023-04-07T13:50:16.271Z,46.70
2023-04-07T13:52:47.720Z,46.35
2023-04-07T13:55:19.692Z,46.32
2023-04-07T13:57:48.546Z,46.39
2023-04-07T14:00:19.079Z,46.51
2023-04-07T14:02:49.188Z,46.57
2023-04-07T14:05:18.469Z,46.58
2023-04-07T14:07:48.014Z,46.67
2023-04-07T14:10:17.156Z,46.59
2023-04-07T14:12:46.551Z,46.75
2023-04-07T14:15:17.051Z,46.77
2023-04-07T14:17:47.657Z,46.70
2023-04-07T14:20:16.928Z,46.81
2023-04-07T14:22:45.902Z,46.89
2023-04-07T14:25:15.005Z,47.07
2023-04-07T14:27:44.256Z,47.10
2023-04-07T14:30:14.836Z,47.08
2023-04-07T14:32:43.851Z,47.16
2023-04-07T14:35:12.920Z,47.21
2023-04-07T14:37:41.886Z,47.29
2023-04-07T14:40:11.992Z,47.49
2023-04-07T14:42:41.163Z,47.40
2023-04-07T14:45:12.272Z,47.54
2023-04-07T14:47:41.370Z,47.68
2023-04-07T14:50:12.020Z,47.63
2023-04-07T14:52:40.981Z,47.72
2023-04-07T14:55:10.437Z,47.93
2023-04-07T14:57:39.705Z,47.88
2023-04-07T15:00:11.330Z,47.91
2023-04-07T15:02:40.520Z,48.04
2023-04-07T15:05:11.045Z,48.22
2023-04-07T15:07:40.099Z,48.27
2023-04-07T15:10:10.824Z,48.41
2023-04-07T15:12:39.669Z,48.28
2023-04-07T15:15:09.700Z,48.55
2023-04-07T15:17:44.619Z,48.53
2023-04-07T15:20:14.124Z,48.49
2023-04-07T15:22:43.119Z,48.49
2023-04-07T15:25:12.187Z,48.60
2023-04-07T15:27:40.983Z,48.56
2023-04-07T15:30:11.545Z,48.64
2023-04-07T15:32:40.595Z,48.67
2023-04-07T15:35:10.252Z,48.58
2023-04-07T15:37:39.300Z,48.60
2023-04-07T15:40:10.473Z,48.69
2023-04-07T15:42:41.217Z,48.86
2023-04-07T15:45:12.383Z,48.87
2023-04-07T15:47:41.318Z,48.92
2023-04-07T15:50:11.728Z,48.91
2023-04-07T15:52:40.804Z,48.99
2023-04-07T15:55:11.413Z,49.21
2023-04-07T15:57:40.360Z,49.38
2023-04-07T16:00:11.156Z,49.49
2023-04-07T16:02:40.252Z,49.66
2023-04-07T16:05:09.958Z,49.58
2023-04-07T16:07:39.050Z,49.51
2023-04-07T16:10:11.764Z,49.64
2023-04-07T16:12:41.238Z,49.83
2023-04-07T16:15:11.244Z,49.95
2023-04-07T16:17:42.006Z,49.86
2023-04-07T16:20:14.076Z,49.84
2023-04-07T16:22:45.120Z,50.20
2023-04-07T16:25:15.034Z,50.14
2023-04-07T16:27:44.590Z,50.11
2023-04-07T16:30:15.723Z,50.26
2023-04-07T16:32:46.200Z,50.33
2023-04-07T16:35:16.167Z,50.44
2023-04-07T16:37:46.128Z,50.40
2023-04-07T16:40:15.792Z,50.48
2023-04-07T16:42:46.170Z,50.33
2023-04-07T16:45:15.420Z,50.52
2023-04-07T16:47:44.704Z,50.63
2023-04-07T16:50:13.751Z,50.59
2023-04-07T16:52:42.693Z,50.63
2023-04-07T16:55:11.915Z,50.71
2023-04-07T16:57:40.912Z,50.71
2023-04-07T17:00:11.958Z,50.59
2023-04-07T17:02:41.128Z,50.67
2023-04-07T17:05:11.024Z,50.62
2023-04-07T17:07:40.034Z,50.52
2023-04-07T17:10:10.963Z,50.66
2023-04-07T17:12:39.988Z,50.57
2023-04-07T17:15:10.522Z,50.65
2023-04-07T17:17:39.762Z,50.52
2023-04-07T17:20:10.948Z,50.56
2023-04-07T17:22:39.881Z,50.40
2023-04-07T17:25:11.226Z,50.49
2023-04-07T17:27:40.517Z,50.73
2023-04-07T17:30:11.411Z,50.69
2023-04-07T17:32:40.911Z,50.60
2023-04-07T17:35:10.549Z,50.64
2023-04-07T17:37:39.464Z,50.74
2023-04-07T17:40:10.855Z,50.70
2023-04-07T17:42:40.617Z,50.52
2023-04-07T17:45:11.356Z,50.82
2023-04-07T17:47:40.743Z,50.76
2023-04-07T17:50:11.545Z,50.79
2023-04-07T17:52:40.588Z,50.81
2023-04-07T17:55:11.800Z,50.88
2023-04-07T17:57:41.457Z,50.91
2023-04-07T18:00:11.905Z,50.95
2023-04-07T18:02:41.084Z,50.80
2023-04-07T18:05:13.835Z,50.77
2023-04-07T18:07:42.761Z,50.82
2023-04-07T18:10:12.550Z,50.86
2023-04-07T18:12:41.498Z,50.91
2023-04-07T18:15:11.472Z,50.88
2023-04-07T18:17:41.974Z,50.91
2023-04-07T18:20:12.578Z,50.98
2023-04-07T18:22:41.915Z,50.99
2023-04-07T18:25:11.747Z,51.12
2023-04-07T18:27:40.796Z,50.95
2023-04-07T18:30:11.927Z,50.99
2023-04-07T18:32:40.933Z,50.95
2023-04-07T18:35:10.535Z,51.07
2023-04-07T18:37:39.448Z,51.06
2023-04-07T18:40:10.360Z,51.11
2023-04-07T18:42:39.415Z,51.05
2023-04-07T18:45:10.312Z,51.15
2023-04-07T18:47:39.357Z,51.04
2023-04-07T18:50:10.217Z,51.06
2023-04-07T18:52:39.241Z,51.03
2023-04-07T18:55:10.390Z,51.15
2023-04-07T18:57:39.706Z,51.13
2023-04-07T19:00:10.499Z,51.16
2023-04-07T19:02:43.656Z,51.19
2023-04-07T19:05:13.535Z,51.29
2023-04-07T19:07:42.439Z,51.36
2023-04-07T19:10:11.418Z,51.13
2023-04-07T19:12:40.725Z,51.26
2023-04-07T19:15:11.381Z,51.38
2023-04-07T19:17:40.915Z,51.53
2023-04-07T19:20:11.095Z,51.37
2023-04-07T19:22:40.114Z,51.38
2023-04-07T19:25:10.274Z,51.51
2023-04-07T19:27:39.405Z,51.42
2023-04-07T19:30:10.856Z,51.51
2023-04-07T19:32:39.922Z,51.32
2023-04-07T19:35:10.654Z,51.32
2023-04-07T19:37:39.861Z,51.51
2023-04-07T19:40:10.416Z,51.39
2023-04-07T19:42:39.464Z,51.59
2023-04-07T19:45:10.194Z,51.41
2023-04-07T19:47:39.326Z,51.65
2023-04-07T19:50:11.180Z,51.69
2023-04-07T19:52:42.533Z,51.55
2023-04-07T19:55:13.457Z,51.70
2023-04-07T19:57:42.570Z,51.69
2023-04-07T20:00:13.087Z,51.58
2023-04-07T20:02:42.370Z,51.48
2023-04-07T20:05:11.471Z,51.72
2023-04-07T20:07:40.553Z,51.77
2023-04-07T20:10:10.678Z,51.75
2023-04-07T20:12:39.570Z,51.87
2023-04-07T20:15:10.765Z,51.66
2023-04-07T20:17:39.914Z,51.85
2023-04-07T20:20:10.785Z,51.91
2023-04-07T20:22:41.996Z,51.78
2023-04-07T20:25:11.452Z,51.85
2023-04-07T20:27:40.437Z,52.01
2023-04-07T20:30:10.552Z,51.78
2023-04-07T20:32:39.670Z,51.96
2023-04-07T20:35:11.232Z,51.92
2023-04-07T20:37:40.339Z,51.81
2023-04-07T20:40:11.653Z,51.78
2023-04-07T20:42:40.590Z,51.99
2023-04-07T20:45:11.879Z,52.16
2023-04-07T20:47:40.947Z,52.27
2023-04-07T20:50:10.887Z,52.44
2023-04-07T20:52:42.836Z,52.48
2023-04-07T20:55:12.254Z,52.35
2023-04-07T20:57:41.465Z,52.48
2023-04-07T21:00:11.512Z,52.38
2023-04-07T21:02:41.263Z,52.51
2023-04-07T21:05:11.100Z,52.38
2023-04-07T21:07:39.985Z,52.56
2023-04-07T21:10:11.676Z,52.64
2023-04-07T21:12:41.142Z,52.47
2023-04-07T21:15:11.326Z,52.60
2023-04-07T21:17:40.522Z,52.56
2023-04-07T21:20:11.536Z,52.43
2023-04-07T21:22:40.507Z,52.65
2023-04-07T21:25:10.594Z,52.76
2023-04-07T21:27:39.862Z,52.76
2023-04-07T21:30:13.227Z,52.45
2023-04-07T21:32:44.856Z,52.70
2023-04-07T21:35:13.956Z,52.73
2023-04-07T21:37:42.990Z,52.96
2023-04-07T21:40:12.784Z,52.83
2023-04-07T21:42:41.932Z,52.93
2023-04-07T21:45:12.634Z,53.01
2023-04-07T21:47:41.808Z,52.97
2023-04-07T21:50:12.961Z,53.19
2023-04-07T21:52:42.061Z,52.95
2023-04-07T21:55:11.420Z,53.03
2023-04-07T21:57:40.400Z,52.96
2023-04-07T22:00:12.162Z,53.03
2023-04-07T22:02:41.184Z,53.17
2023-04-07T22:05:11.149Z,53.30
2023-04-07T22:07:40.189Z,53.47
2023-04-07T22:10:10.997Z,53.37
2023-04-07T22:12:40.397Z,53.30
2023-04-07T22:15:12.560Z,53.43
2023-04-07T22:17:41.495Z,53.28
2023-04-07T22:20:12.274Z,53.44
2023-04-07T22:22:42.553Z,53.48
2023-04-07T22:25:11.492Z,53.58
2023-04-07T22:27:40.610Z,53.64
2023-04-07T22:30:11.753Z,53.48
2023-04-07T22:32:40.954Z,53.64
2023-04-07T22:35:10.681Z,53.98
2023-04-07T22:37:39.688Z,53.86
2023-04-07T22:40:10.500Z,53.66
2023-04-07T22:42:39.795Z,53.79
2023-04-07T22:45:10.422Z,53.63
2023-04-07T22:47:40.116Z,53.92
2023-04-07T22:50:11.178Z,54.03
2023-04-07T22:52:40.143Z,53.96
2023-04-07T22:55:10.508Z,53.91
2023-04-07T22:57:39.592Z,53.93
2023-04-07T23:00:11.925Z,53.98
2023-04-07T23:02:41.896Z,53.96
2023-04-07T23:05:11.326Z,53.73
2023-04-07T23:07:40.491Z,53.86
2023-04-07T23:10:10.785Z,53.93
2023-04-07T23:12:39.728Z,53.87
2023-04-07T23:15:10.578Z,53.98
2023-04-07T23:17:39.844Z,54.02
2023-04-07T23:20:11.147Z,54.09
2023-04-07T23:22:40.589Z,54.25
2023-04-07T23:25:10.550Z,54.64
2023-04-07T23:27:39.857Z,54.46
2023-04-07T23:30:11.075Z,54.47
2023-04-07T23:32:40.171Z,54.68
2023-04-07T23:35:10.884Z,54.59
2023-04-07T23:37:39.950Z,54.85
2023-04-07T23:40:11.909Z,54.70
2023-04-07T23:42:41.388Z,54.79
2023-04-07T23:45:11.596Z,55.14
2023-04-07T23:47:40.688Z,55.01
2023-04-07T23:50:11.365Z,55.20
2023-04-07T23:52:40.408Z,55.05
2023-04-07T23:55:10.586Z,55.03
2023-04-07T23:57:39.448Z,55.01
